Time;durP1;ratioP1;P1;durP2;ratioP2;P2;SDS_P1;SDS_P2;PMS_P1;PMS_P2;Temp;Humidity;BMP_temperature;BMP_pressure;BME280_temperature;BME280_humidity;BME280_pressure;Samples;Min_cycle;Max_cycle;Signal;HPM_P1;HPM_P2
2024/01/26 00:00:05;;;;;;;2.60;1.80;;;;;;;3.83;100.00;100681.33;109852;1238;68993;-70
2024/01/26 00:02:59;;;;;;;2.50;2.00;;;;;;;3.78;100.00;100687.05;109760;1241;65402;-69
2024/01/26 00:05:30;;;;;;;2.20;1.60;;;;;;;3.73;100.00;100690.87;109841;1241;58315;-69
2024/01/26 00:08:00;;;;;;;4.30;2.30;;;;;;;3.59;100.00;100695.82;109947;1239;57737;-69
2024/01/26 00:10:29;;;;;;;4.40;2.20;;;;;;;3.65;100.00;100691.23;109853;1238;74206;-69
2024/01/26 00:12:58;;;;;;;2.70;1.80;;;;;;;3.66;100.00;100687.41;109958;1238;72495;-69
2024/01/26 00:15:26;;;;;;;2.90;2.00;;;;;;;3.63;100.00;100688.77;109967;1238;70814;-69
2024/01/26 00:17:55;;;;;;;3.60;2.20;;;;;;;3.66;100.00;100689.11;109905;1238;74322;-69
2024/01/26 00:20:24;;;;;;;4.10;2.20;;;;;;;3.64;100.00;100682.14;109927;1240;57928;-69
2024/01/26 00:22:55;;;;;;;4.30;2.30;;;;;;;3.61;100.00;100679.70;109982;1238;58285;-71
2024/01/26 00:25:25;;;;;;;4.30;2.20;;;;;;;3.65;100.00;100696.73;109930;1241;74460;-70
2024/01/26 00:27:54;;;;;;;3.10;2.00;;;;;;;3.60;100.00;100705.55;109993;1238;61264;-70
2024/01/26 00:30:23;;;;;;;4.60;2.30;;;;;;;3.60;100.00;100716.96;109822;1238;70111;-70
2024/01/26 00:32:52;;;;;;;1.90;1.70;;;;;;;3.62;100.00;100715.98;109836;1238;74303;-71
2024/01/26 00:35:20;;;;;;;3.50;2.30;;;;;;;3.61;100.00;100715.03;109936;1241;61467;-70
2024/01/26 00:37:49;;;;;;;3.00;2.30;;;;;;;3.55;100.00;100719.41;109857;1239;57765;-69
2024/01/26 00:40:18;;;;;;;3.60;2.20;;;;;;;3.53;100.00;100721.04;109966;1239;63638;-69
2024/01/26 00:42:48;;;;;;;3.60;2.20;;;;;;;3.47;100.00;100731.30;109821;1240;71359;-68
2024/01/26 00:45:17;;;;;;;3.20;1.60;;;;;;;3.50;100.00;100718.41;109567;1238;71143;-69
2024/01/26 00:47:46;;;;;;;2.80;1.70;;;;;;;3.45;100.00;100717.45;109785;1240;62846;-69
2024/01/26 00:50:15;;;;;;;3.10;2.00;;;;;;;3.42;100.00;100722.88;109667;1241;61938;-68
2024/01/26 00:52:44;;;;;;;3.70;2.10;;;;;;;3.46;100.00;100717.73;109540;1238;60916;-69
2024/01/26 00:55:12;;;;;;;3.00;1.90;;;;;;;3.44;100.00;100714.19;109653;1242;74106;-69
2024/01/26 00:57:41;;;;;;;3.20;2.30;;;;;;;3.45;100.00;100722.42;109767;1240;61341;-68
2024/01/26 01:00:11;;;;;;;2.10;1.70;;;;;;;3.43;100.00;100729.20;109794;1241;59083;-69
2024/01/26 01:02:40;;;;;;;2.10;1.60;;;;;;;3.44;100.00;100729.19;109651;1240;73030;-69
2024/01/26 01:05:09;;;;;;;3.70;1.60;;;;;;;3.41;100.00;100735.17;109908;1238;61539;-69
2024/01/26 01:07:38;;;;;;;2.60;2.00;;;;;;;3.40;100.00;100732.60;109942;1240;57685;-69
2024/01/26 01:10:08;;;;;;;3.70;2.40;;;;;;;3.35;100.00;100720.25;109901;1238;74331;-70
2024/01/26 01:12:43;;;;;;;3.70;2.10;;;;;;;3.40;100.00;100719.87;109909;1239;72212;-70
2024/01/26 01:15:12;;;;;;;2.00;1.70;;;;;;;3.38;100.00;100722.90;109611;1243;59597;-70
2024/01/26 01:17:43;;;;;;;3.10;2.20;;;;;;;3.38;100.00;100732.85;109706;1238;73925;-69
2024/01/26 01:20:13;;;;;;;5.20;2.40;;;;;;;3.32;100.00;100731.74;109744;1241;62386;-68
2024/01/26 01:22:43;;;;;;;2.90;1.80;;;;;;;3.27;100.00;100736.78;109573;1243;58145;-68
2024/01/26 01:25:12;;;;;;;3.20;2.20;;;;;;;3.22;100.00;100736.11;109560;1241;63742;-70
2024/01/26 01:27:41;;;;;;;2.80;2.10;;;;;;;3.26;100.00;100727.02;109817;1241;60752;-70
2024/01/26 01:30:10;;;;;;;3.40;2.00;;;;;;;3.25;100.00;100731.52;109770;1240;68683;-68
2024/01/26 01:32:39;;;;;;;3.70;2.20;;;;;;;3.28;100.00;100729.51;109798;1240;72046;-69
2024/01/26 01:35:08;;;;;;;3.70;1.80;;;;;;;3.27;100.00;100728.69;109746;1240;62110;-69
2024/01/26 01:37:37;;;;;;;3.60;2.20;;;;;;;3.26;100.00;100728.04;109787;1240;58310;-70
2024/01/26 01:40:07;;;;;;;3.00;2.00;;;;;;;3.22;100.00;100740.27;109934;1240;63698;-68
2024/01/26 01:42:36;;;;;;;3.10;2.20;;;;;;;3.22;100.00;100746.77;109827;1238;60703;-68
2024/01/26 01:45:15;;;;;;;2.80;1.90;;;;;;;3.21;100.00;100741.87;109912;1238;70247;-69
2024/01/26 01:47:44;;;;;;;3.00;2.20;;;;;;;3.20;100.00;100734.16;109931;1239;64278;-70
2024/01/26 01:50:13;;;;;;;3.30;2.50;;;;;;;3.19;100.00;100728.84;109904;1238;62394;-70
2024/01/26 01:52:47;;;;;;;3.20;2.20;;;;;;;3.18;100.00;100739.71;109791;1239;57742;-69
2024/01/26 01:55:16;;;;;;;2.00;1.70;;;;;;;3.11;100.00;100735.70;109923;1238;72789;-70
2024/01/26 01:57:47;;;;;;;2.30;1.90;;;;;;;2.99;100.00;100747.06;109877;1240;72497;-69
2024/01/26 02:00:16;;;;;;;3.10;2.30;;;;;;;3.06;100.00;100741.95;109703;1239;70021;-70
2024/01/26 02:02:47;;;;;;;3.30;2.50;;;;;;;2.97;100.00;100743.70;109793;1238;74559;-70
2024/01/26 02:05:18;;;;;;;3.70;2.30;;;;;;;2.90;100.00;100743.26;109654;1238;61897;-69
2024/01/26 02:07:51;;;;;;;3.30;2.30;;;;;;;2.90;100.00;100746.39;109782;1237;57761;-72
2024/01/26 02:10:20;;;;;;;;;;;;;;;2.86;100.00;100744.83;109820;1239;63341;-68
2024/01/26 02:12:49;;;;;;;3.40;2.40;;;;;;;2.80;100.00;100743.88;109729;1237;60759;-69
2024/01/26 02:15:18;;;;;;;4.10;2.60;;;;;;;2.78;100.00;100749.61;109821;1237;70308;-69
2024/01/26 02:17:47;;;;;;;3.70;2.60;;;;;;;2.70;100.00;100757.66;109713;1237;73423;-70
2024/01/26 02:20:15;;;;;;;2.90;2.20;;;;;;;2.65;100.00;100758.20;109805;1237;62247;-69
2024/01/26 02:22:44;;;;;;;2.80;2.30;;;;;;;2.69;100.00;100763.02;109766;1237;57808;-69
2024/01/26 02:25:13;;;;;;;3.20;2.20;;;;;;;2.65;100.00;100764.20;109820;1239;74532;-70
2024/01/26 02:27:41;;;;;;;4.10;2.20;;;;;;;2.68;100.00;100764.41;109871;1237;62745;-68
2024/01/26 02:30:11;;;;;;;3.40;2.00;;;;;;;2.78;100.00;100779.89;109770;1237;60355;-67
2024/01/26 02:32:40;;;;;;;3.00;2.10;;;;;;;2.82;100.00;100779.73;109882;1237;63255;-68
2024/01/26 02:35:10;;;;;;;3.60;2.40;;;;;;;2.88;100.00;100782.75;109840;1237;60115;-67
2024/01/26 02:37:38;;;;;;;3.30;2.30;;;;;;;2.83;100.00;100788.63;109776;1237;60615;-69
2024/01/26 02:40:09;;;;;;;3.30;2.20;;;;;;;2.84;100.00;100783.09;109900;1237;64115;-69
2024/01/26 02:42:38;;;;;;;4.10;2.30;;;;;;;2.84;100.00;100784.98;109992;1237;60770;-68
2024/01/26 02:45:07;;;;;;;3.30;2.30;;;;;;;2.78;100.00;100791.57;109998;1240;68481;-68
2024/01/26 02:47:36;;;;;;;3.50;2.20;;;;;;;2.70;100.00;100782.94;110075;1237;71757;-68
2024/01/26 02:50:06;;;;;;;2.70;1.70;;;;;;;2.72;100.00;100790.25;110042;1239;62496;-68
2024/01/26 02:52:36;;;;;;;3.90;2.20;;;;;;;2.69;100.00;100792.27;109992;1240;62126;-70
2024/01/26 02:55:05;;;;;;;5.50;2.70;;;;;;;2.65;100.00;100795.84;109988;1237;64650;-70
2024/01/26 02:57:34;;;;;;;2.90;2.40;;;;;;;2.66;100.00;100798.04;110065;1237;69695;-70
2024/01/26 03:00:04;;;;;;;3.50;2.50;;;;;;;2.63;100.00;100795.77;110084;1237;70087;-69
2024/01/26 03:02:33;;;;;;;5.10;2.80;;;;;;;2.51;100.00;100788.65;110047;1237;72395;-70
2024/01/26 03:05:02;;;;;;;4.00;2.70;;;;;;;2.51;100.00;100789.14;110017;1239;57780;-70
2024/01/26 03:07:31;;;;;;;5.10;2.80;;;;;;;2.46;100.00;100796.39;110091;1237;58315;-70
2024/01/26 03:10:00;;;;;;;4.40;3.10;;;;;;;2.45;100.00;100808.80;110055;1239;73428;-70
2024/01/26 03:12:28;;;;;;;7.30;3.10;;;;;;;2.46;100.00;100805.02;110038;1238;72548;-69
2024/01/26 03:14:57;;;;;;;4.10;2.60;;;;;;;2.51;100.00;100812.39;110040;1237;70621;-69
2024/01/26 03:17:26;;;;;;;3.50;2.80;;;;;;;2.50;100.00;100819.30;110034;1237;63706;-68
2024/01/26 03:19:55;;;;;;;5.00;2.70;;;;;;;2.61;100.00;100814.91;109959;1240;58268;-69
2024/01/26 03:22:24;;;;;;;3.50;2.70;;;;;;;2.69;100.00;100826.16;110072;1237;58367;-69
2024/01/26 03:24:53;;;;;;;3.60;2.40;;;;;;;2.63;100.00;100821.02;110057;1237;74353;-68
2024/01/26 03:27:21;;;;;;;3.60;2.50;;;;;;;2.74;100.00;100820.63;109971;1237;73542;-68
2024/01/26 03:29:50;;;;;;;3.90;2.10;;;;;;;2.80;100.00;100815.73;110120;1237;59485;-70
2024/01/26 03:32:19;;;;;;;2.90;2.10;;;;;;;2.86;100.00;100815.36;110036;1237;63121;-69
2024/01/26 03:34:48;;;;;;;3.50;1.90;;;;;;;2.86;100.00;100813.61;109949;1238;58180;-69
2024/01/26 03:37:17;;;;;;;2.80;1.90;;;;;;;2.90;100.00;100811.04;110046;1237;61869;-69
2024/01/26 03:39:45;;;;;;;2.80;1.60;;;;;;;2.99;100.00;100808.84;110000;1237;74719;-68
2024/01/26 03:42:14;;;;;;;3.80;1.90;;;;;;;2.99;100.00;100819.82;110115;1237;61812;-69
2024/01/26 03:44:43;;;;;;;4.60;2.00;;;;;;;2.98;100.00;100822.28;110046;1237;59800;-69
2024/01/26 03:47:12;;;;;;;2.80;1.80;;;;;;;3.02;100.00;100814.36;110086;1237;63047;-69
2024/01/26 03:49:44;;;;;;;3.60;2.20;;;;;;;3.03;100.00;100823.13;110062;1239;61896;-68
2024/01/26 03:52:13;;;;;;;2.80;2.00;;;;;;;3.02;100.00;100818.16;110054;1237;58292;-69
2024/01/26 03:54:42;;;;;;;3.40;2.20;;;;;;;2.94;100.00;100818.81;109895;1241;62848;-71
2024/01/26 03:57:11;;;;;;;4.20;2.40;;;;;;;2.94;100.00;100817.95;110112;1237;71468;-71
2024/01/26 03:59:39;;;;;;;3.40;2.30;;;;;;;2.92;100.00;100820.42;110006;1237;70785;-70
2024/01/26 04:02:08;;;;;;;3.70;2.60;;;;;;;2.88;100.00;100825.60;110099;1237;63549;-69
2024/01/26 04:04:37;;;;;;;4.20;2.40;;;;;;;2.84;100.00;100828.48;110091;1239;58357;-70
2024/01/26 04:07:06;;;;;;;2.80;2.20;;;;;;;2.79;100.00;100833.84;110123;1237;61222;-69
2024/01/26 04:09:35;;;;;;;4.30;2.90;;;;;;;2.79;100.00;100844.48;110180;1238;73545;-69
2024/01/26 04:12:05;;;;;;;3.60;2.40;;;;;;;2.73;100.00;100842.52;110222;1236;61042;-69
2024/01/26 04:14:34;;;;;;;4.60;2.90;;;;;;;2.81;100.00;100852.52;110125;1236;69458;-70
2024/01/26 04:17:03;;;;;;;3.40;2.30;;;;;;;2.78;100.00;100855.04;110186;1238;73480;-70
2024/01/26 04:19:31;;;;;;;2.90;2.30;;;;;;;2.77;100.00;100857.83;110183;1238;57844;-69
2024/01/26 04:22:00;;;;;;;4.10;2.60;;;;;;;2.80;100.00;100855.30;110208;1237;57797;-70
2024/01/26 04:24:29;;;;;;;3.40;2.30;;;;;;;2.78;100.00;100869.51;110237;1238;62960;-69
2024/01/26 04:26:58;;;;;;;3.20;2.20;;;;;;;2.82;100.00;100868.46;110204;1238;72153;-69
2024/01/26 04:29:26;;;;;;;3.90;2.50;;;;;;;2.85;100.00;100868.20;110022;1237;70861;-69
2024/01/26 04:31:55;;;;;;;3.30;2.30;;;;;;;2.85;100.00;100873.49;110072;1238;73507;-71
2024/01/26 04:34:24;;;;;;;3.60;2.30;;;;;;;2.87;100.00;100876.86;109997;1241;57713;-70
2024/01/26 04:36:53;;;;;;;3.80;2.70;;;;;;;2.85;100.00;100880.06;109973;1237;60568;-70
2024/01/26 04:39:22;;;;;;;4.90;2.40;;;;;;;2.84;100.00;100886.13;110091;1237;63410;-70
2024/01/26 04:41:51;;;;;;;4.70;2.20;;;;;;;2.84;100.00;100884.56;110126;1238;61640;-69
2024/01/26 04:44:20;;;;;;;3.80;2.30;;;;;;;2.84;100.00;100887.16;110123;1239;59816;-70
2024/01/26 04:46:48;;;;;;;3.60;2.10;;;;;;;2.90;100.00;100887.27;109975;1237;73827;-69
2024/01/26 04:49:17;;;;;;;3.80;1.90;;;;;;;2.85;100.00;100898.98;110099;1238;62468;-70
2024/01/26 04:51:46;;;;;;;3.30;2.30;;;;;;;2.92;100.00;100893.55;110077;1237;61039;-71
2024/01/26 04:54:15;;;;;;;4.90;2.60;;;;;;;2.95;100.00;100888.62;110024;1239;64395;-70
2024/01/26 04:56:44;;;;;;;2.30;1.70;;;;;;;2.95;100.00;100897.38;110034;1237;60892;-73
2024/01/26 04:59:13;;;;;;;4.60;1.90;;;;;;;2.95;100.00;100904.60;110044;1237;59773;-71
2024/01/26 05:01:42;;;;;;;3.00;1.90;;;;;;;2.88;100.00;100907.29;109925;1239;71056;-71
2024/01/26 05:04:10;;;;;;;3.60;2.30;;;;;;;2.81;100.00;100906.52;110010;1237;60754;-73
2024/01/26 05:06:39;;;;;;;3.00;1.90;;;;;;;2.82;100.00;100908.23;110013;1237;57727;-74
2024/01/26 05:09:09;;;;;;;3.80;1.80;;;;;;;2.79;100.00;100906.95;110012;1237;72493;-72
2024/01/26 05:11:37;;;;;;;2.60;1.90;;;;;;;2.78;100.00;100909.58;109989;1238;71392;-73
2024/01/26 05:14:06;;;;;;;2.60;1.60;;;;;;;2.79;100.00;100917.08;109982;1237;70012;-73
2024/01/26 05:16:35;;;;;;;2.50;1.70;;;;;;;2.78;100.00;100916.28;109946;1239;63635;-73
2024/01/26 05:19:04;;;;;;;3.60;2.00;;;;;;;2.71;100.00;100925.48;109800;1239;62021;-71
2024/01/26 05:21:33;;;;;;;3.00;1.80;;;;;;;2.75;100.00;100930.48;109815;1237;58111;-72
2024/01/26 05:24:02;;;;;;;2.70;1.60;;;;;;;2.73;100.00;100931.41;109824;1237;73519;-69
2024/01/26 05:26:31;;;;;;;2.30;1.50;;;;;;;2.68;100.00;100934.36;109748;1237;71252;-73
2024/01/26 05:28:59;;;;;;;2.20;1.70;;;;;;;2.63;100.00;100932.64;109845;1237;69986;-72
2024/01/26 05:31:28;;;;;;;3.10;1.90;;;;;;;2.64;100.00;100938.61;109832;1239;63805;-71
2024/01/26 05:33:57;;;;;;;3.00;1.80;;;;;;;2.64;100.00;100940.17;109784;1240;58069;-71
2024/01/26 05:36:26;;;;;;;3.60;1.90;;;;;;;2.71;100.00;100945.06;109819;1239;59898;-73
2024/01/26 05:38:55;;;;;;;3.40;1.60;;;;;;;2.65;100.00;100949.42;109703;1237;65178;-71
2024/01/26 05:41:23;;;;;;;4.70;2.10;;;;;;;2.65;100.00;100950.08;109770;1237;72968;-71
2024/01/26 05:43:52;;;;;;;4.50;2.20;;;;;;;2.69;100.00;100950.64;109812;1237;60774;-71
2024/01/26 05:46:21;;;;;;;2.30;1.70;;;;;;;2.68;100.00;100956.20;109756;1240;62397;-71
2024/01/26 05:48:50;;;;;;;3.10;2.00;;;;;;;2.71;100.00;100963.80;109695;1237;62194;-71
2024/01/26 05:51:19;;;;;;;3.50;2.10;;;;;;;2.70;100.00;100970.05;109862;1237;60815;-70
2024/01/26 05:53:47;;;;;;;2.50;1.50;;;;;;;2.64;100.00;100974.71;109694;1239;74037;-71
2024/01/26 05:56:16;;;;;;;3.40;2.30;;;;;;;2.70;100.00;100975.04;109837;1239;72061;-70
2024/01/26 05:58:45;;;;;;;3.70;2.20;;;;;;;2.67;100.00;100984.25;109866;1239;59717;-77
2024/01/26 06:01:14;;;;;;;3.20;1.90;;;;;;;2.73;100.00;100979.57;109950;1239;62284;-78
2024/01/26 06:03:43;;;;;;;2.50;1.70;;;;;;;2.78;100.00;100978.21;109952;1239;58382;-78
2024/01/26 06:06:12;;;;;;;2.80;2.00;;;;;;;2.70;100.00;100982.23;110001;1237;59475;-80
2024/01/26 06:08:41;;;;;;;4.00;1.90;;;;;;;2.75;100.00;100985.52;109966;1237;74364;-79
2024/01/26 06:11:13;;;;;;;3.50;1.90;;;;;;;2.77;100.00;100994.90;109987;1238;72132;-80
2024/01/26 06:13:41;;;;;;;2.40;1.60;;;;;;;2.71;100.00;100997.36;109894;1237;70811;-79
2024/01/26 06:16:14;;;;;;;4.30;2.20;;;;;;;2.67;100.00;100999.54;109885;1238;62470;-80
2024/01/26 06:18:46;;;;;;;3.90;2.10;;;;;;;2.61;100.00;101005.59;109919;1241;61847;-86
2024/01/26 06:21:15;;;;;;;3.90;2.40;;;;;;;2.61;100.00;101008.86;109983;1238;59644;-85
2024/01/26 06:23:43;;;;;;;3.90;2.00;;;;;;;2.65;100.00;101011.32;109901;1237;74250;-83
2024/01/26 06:26:12;;;;;;;2.90;2.00;;;;;;;2.63;100.00;101013.99;109916;1239;71744;-83
2024/01/26 06:28:41;;;;;;;3.80;2.20;;;;;;;2.64;100.00;101016.68;109886;1240;59503;-76
2024/01/26 06:31:10;;;;;;;3.80;2.00;;;;;;;2.68;100.00;101022.07;109948;1241;62529;-83
2024/01/26 06:33:39;;;;;;;2.80;1.80;;;;;;;2.68;100.00;101029.64;109946;1238;61067;-72
2024/01/26 06:36:08;;;;;;;4.40;2.10;;;;;;;2.70;100.00;101029.90;109942;1238;61635;-71
2024/01/26 06:38:40;;;;;;;2.70;1.70;;;;;;;2.67;100.00;101029.16;109866;1238;62708;-71
2024/01/26 06:41:09;;;;;;;3.00;1.80;;;;;;;2.65;100.00;101034.04;109860;1241;61704;-72
2024/01/26 06:43:38;;;;;;;3.40;1.90;;;;;;;2.65;100.00;101032.46;109869;1241;60030;-71
2024/01/26 06:46:07;;;;;;;2.40;1.50;;;;;;;2.72;100.00;101037.39;109925;1241;62455;-71
2024/01/26 06:48:36;;;;;;;2.30;1.60;;;;;;;2.64;100.00;101044.39;109907;1241;58464;-72
2024/01/26 06:51:05;;;;;;;2.70;1.50;;;;;;;2.65;100.00;101043.84;109765;1241;208626;-72
2024/01/26 06:53:34;;;;;;;3.00;1.80;;;;;;;2.66;100.00;101040.52;109921;1238;73605;-72
2024/01/26 06:56:03;;;;;;;1.60;1.30;;;;;;;2.66;100.00;101042.08;109856;1238;72618;-73
2024/01/26 06:58:31;;;;;;;2.60;2.00;;;;;;;2.66;100.00;101041.89;109937;1238;62718;-72
2024/01/26 07:01:00;;;;;;;4.50;1.90;;;;;;;2.67;100.00;101040.88;109892;1240;73169;-72
2024/01/26 07:03:29;;;;;;;3.70;2.20;;;;;;;2.69;100.00;101042.83;109761;1241;63297;-73
2024/01/26 07:05:58;;;;;;;3.80;1.70;;;;;;;2.72;100.00;101047.71;109780;1241;58295;-72
2024/01/26 07:08:27;;;;;;;2.40;1.60;;;;;;;2.73;100.00;101055.40;109713;1241;63800;-71
2024/01/26 07:10:56;;;;;;;2.70;2.00;;;;;;;2.72;100.00;101059.77;109668;1241;61526;-71
2024/01/26 07:13:25;;;;;;;4.80;1.90;;;;;;;2.71;100.00;101059.09;109667;1238;69617;-71
2024/01/26 07:15:53;;;;;;;3.10;1.70;;;;;;;2.74;100.00;101068.63;109773;1238;74063;-71
2024/01/26 07:18:22;;;;;;;2.50;1.70;;;;;;;2.74;100.00;101069.00;109774;1241;58408;-72
2024/01/26 07:20:51;;;;;;;3.50;1.70;;;;;;;2.66;100.00;101071.33;109794;1242;57847;-71
2024/01/26 07:23:20;;;;;;;1.90;1.40;;;;;;;2.68;100.00;101077.27;109787;1242;63749;-71
2024/01/26 07:25:49;;;;;;;4.80;1.90;;;;;;;2.64;100.00;101066.23;109932;1241;72281;-72
2024/01/26 07:28:17;;;;;;;3.80;2.10;;;;;;;2.69;100.00;101072.27;109886;1238;70286;-71
2024/01/26 07:30:46;;;;;;;2.30;1.50;;;;;;;2.65;100.00;101068.92;109768;1241;64042;-71
2024/01/26 07:33:15;;;;;;;3.10;1.70;;;;;;;2.61;100.00;101074.41;109898;1241;58302;-72
2024/01/26 07:35:44;;;;;;;4.00;2.00;;;;;;;2.69;100.00;101076.56;109665;1244;58343;-72
2024/01/26 07:38:13;;;;;;;3.60;1.80;;;;;;;2.69;100.00;101077.77;109961;1242;63761;-72
2024/01/26 07:40:42;;;;;;;4.40;2.00;;;;;;;2.69;100.00;101076.70;109969;1241;60989;-72
2024/01/26 07:43:11;;;;;;;4.80;2.10;;;;;;;2.64;100.00;101083.77;109934;1241;59265;-72
2024/01/26 07:45:40;;;;;;;2.20;1.60;;;;;;;2.67;100.00;101089.67;109859;1241;73040;-71
2024/01/26 07:48:12;;;;;;;4.40;2.10;;;;;;;2.72;100.00;101093.98;109877;1241;61470;-72
2024/01/26 07:50:41;;;;;;;2.30;1.50;;;;;;;2.71;100.00;101089.90;109769;1241;60717;-71
2024/01/26 07:53:11;;;;;;;3.00;1.80;;;;;;;2.75;100.00;101089.05;109664;1241;64518;-73
2024/01/26 07:55:40;;;;;;;3.90;1.80;;;;;;;2.79;100.00;101087.23;109777;1241;61460;-72
2024/01/26 07:58:09;;;;;;;3.90;2.30;;;;;;;2.82;100.00;101093.81;109788;1238;70266;-71
2024/01/26 08:00:38;;;;;;;2.80;1.60;;;;;;;2.90;100.00;101111.61;109764;1238;74427;-71
2024/01/26 08:03:07;;;;;;;2.70;2.00;;;;;;;2.89;100.00;101103.23;109735;1240;57783;-73
2024/01/26 08:05:37;;;;;;;3.70;2.20;;;;;;;2.93;100.00;101099.11;109749;1241;57781;-72
2024/01/26 08:08:06;;;;;;;6.00;3.10;;;;;;;2.87;100.00;101103.61;109770;1238;73740;-72
2024/01/26 08:10:36;;;;;;;7.20;2.70;;;;;;;2.89;100.00;101104.57;109640;1241;61939;-71
2024/01/26 08:13:05;;;;;;;3.40;2.40;;;;;;;2.85;100.00;101101.45;109795;1240;70571;-72
2024/01/26 08:15:34;;;;;;;2.80;2.30;;;;;;;2.80;100.00;101110.92;109711;1241;74476;-72
2024/01/26 08:18:03;;;;;;;4.30;2.50;;;;;;;2.74;100.00;101121.94;109621;1242;62265;-72
2024/01/26 08:20:32;;;;;;;3.50;2.40;;;;;;;2.77;100.00;101119.94;109614;1241;57953;-71
2024/01/26 08:23:01;;;;;;;2.40;1.90;;;;;;;2.76;100.00;101122.23;109747;1242;73546;-71
2024/01/26 08:25:30;;;;;;;4.20;2.30;;;;;;;2.73;100.00;101127.84;109693;1242;61989;-71
2024/01/26 08:27:59;;;;;;;2.70;1.90;;;;;;;2.69;100.00;101129.84;109743;1241;70510;-72
2024/01/26 08:30:28;;;;;;;5.40;2.70;;;;;;;2.70;100.00;101130.33;109695;1242;64652;-71
2024/01/26 08:32:57;;;;;;;3.50;2.40;;;;;;;2.67;100.00;101128.20;109686;1241;58360;-72
2024/01/26 08:35:26;;;;;;;3.70;2.60;;;;;;;2.62;100.00;101131.98;109628;1241;57840;-73
2024/01/26 08:37:56;;;;;;;3.30;2.50;;;;;;;2.68;100.00;101128.34;109740;1238;74331;-71
2024/01/26 08:40:25;;;;;;;3.90;2.60;;;;;;;2.72;100.00;101123.05;109632;1238;72176;-72
2024/01/26 08:42:54;;;;;;;4.20;2.90;;;;;;;2.67;100.00;101122.52;109755;1238;60551;-72
2024/01/26 08:45:23;;;;;;;4.00;2.20;;;;;;;2.73;100.00;101127.67;109643;1242;63308;-72
2024/01/26 08:47:52;;;;;;;5.20;2.90;;;;;;;2.71;100.00;101125.66;109783;1242;57746;-72
2024/01/26 08:50:21;;;;;;;3.40;2.00;;;;;;;2.71;100.00;101128.42;109669;1238;59736;-71
2024/01/26 08:52:50;;;;;;;3.50;2.40;;;;;;;2.70;100.00;101139.42;109668;1238;74304;-72
2024/01/26 08:55:18;;;;;;;4.20;2.90;;;;;;;2.72;100.00;101137.33;109714;1238;72485;-72
2024/01/26 08:57:48;;;;;;;4.60;3.00;;;;;;;2.72;100.00;101150.75;109759;1241;69820;-71
2024/01/26 09:00:19;;;;;;;5.30;3.40;;;;;;;2.73;100.00;101143.48;109707;1238;73071;-73
2024/01/26 09:02:48;;;;;;;4.90;3.20;;;;;;;2.75;100.00;101138.77;109718;1242;60812;-72
2024/01/26 09:05:18;;;;;;;5.80;2.90;;;;;;;2.85;100.00;101142.89;109493;1239;57783;-71
2024/01/26 09:07:47;;;;;;;3.50;2.50;;;;;;;2.89;100.00;101144.13;109787;1238;73609;-72
2024/01/26 09:10:15;;;;;;;4.00;2.80;;;;;;;2.93;100.00;101139.05;109654;1238;72622;-72
2024/01/26 09:12:47;;;;;;;4.70;3.10;;;;;;;2.99;100.00;101149.17;109748;1238;70223;-72
2024/01/26 09:15:15;;;;;;;4.60;3.00;;;;;;;2.98;100.00;101147.11;109717;1241;74177;-71
2024/01/26 09:17:44;;;;;;;3.90;2.80;;;;;;;3.00;100.00;101147.55;109693;1238;61720;-72
2024/01/26 09:20:14;;;;;;;2.90;2.30;;;;;;;3.11;100.00;101151.68;109711;1238;60411;-72
2024/01/26 09:22:43;;;;;;;4.70;3.00;;;;;;;3.09;100.00;101155.35;109737;1238;73233;-73
2024/01/26 09:25:12;;;;;;;4.30;3.30;;;;;;;3.18;100.00;101149.89;109617;1238;71753;-74
2024/01/26 09:27:41;;;;;;;4.00;2.70;;;;;;;3.24;100.00;101145.73;109705;1238;70055;-72
2024/01/26 09:30:10;;;;;;;5.10;2.90;;;;;;;3.29;100.00;101147.09;109713;1240;63440;-72
2024/01/26 09:32:39;;;;;;;9.80;6.50;;;;;;;3.34;100.00;101140.55;109708;1238;58440;-72
2024/01/26 09:35:09;;;;;;;4.30;3.20;;;;;;;3.35;100.00;101152.55;109726;1238;61972;-72
2024/01/26 09:37:39;;;;;;;3.50;2.80;;;;;;;3.46;100.00;101146.15;109745;1240;74862;-71
2024/01/26 09:40:11;;;;;;;4.20;3.30;;;;;;;3.43;100.00;101133.48;109749;1238;72312;-72
2024/01/26 09:42:40;;;;;;;4.40;2.80;;;;;;;3.47;100.00;101153.33;109652;1238;60398;-72
2024/01/26 09:45:11;;;;;;;5.70;3.30;;;;;;;3.48;100.00;101145.19;109774;1238;63083;-73
2024/01/26 09:47:43;;;;;;;5.30;2.90;;;;;;;3.40;100.00;101144.80;109512;1238;62797;-71
2024/01/26 09:50:15;;;;;;;5.20;3.20;;;;;;;3.41;100.00;101133.91;109513;1238;60302;-72
2024/01/26 09:52:44;;;;;;;4.00;2.60;;;;;;;3.44;100.00;101137.95;109669;1238;63809;-71
2024/01/26 09:55:15;;;;;;;3.60;2.60;;;;;;;3.36;100.00;101136.84;109764;1238;70027;-74
2024/01/26 09:57:47;;;;;;;3.80;2.70;;;;;;;3.42;100.00;101121.13;109727;1238;70991;-74
2024/01/26 10:00:18;;;;;;;3.90;3.00;;;;;;;3.37;100.00;101133.01;109518;1238;74467;-72
2024/01/26 10:02:47;;;;;;;5.70;3.20;;;;;;;3.38;100.00;101141.25;109636;1238;57828;-72
2024/01/26 10:05:17;;;;;;;3.50;2.70;;;;;;;3.43;100.00;101125.57;109775;1238;58907;-72
2024/01/26 10:07:46;;;;;;;4.60;3.50;;;;;;;3.48;100.00;101125.23;109558;1238;63863;-71
2024/01/26 10:10:16;;;;;;;4.10;3.40;;;;;;;3.45;100.00;101118.08;109836;1238;61514;-73
2024/01/26 10:12:45;;;;;;;4.60;3.00;;;;;;;3.54;100.00;101135.35;109815;1238;59853;-72
2024/01/26 10:15:14;;;;;;;5.40;3.00;;;;;;;3.52;100.00;101111.15;109835;1238;73754;-72
2024/01/26 10:17:52;;;;;;;4.80;2.90;;;;;;;3.50;100.00;101108.80;109767;1240;57795;-72
2024/01/26 10:20:24;;;;;;;3.90;2.90;;;;;;;3.54;100.00;101119.33;109656;1238;60242;-73
2024/01/26 10:22:53;;;;;;;5.90;3.70;;;;;;;3.40;100.00;101098.67;109761;1238;74176;-71
2024/01/26 10:25:22;;;;;;;5.10;3.20;;;;;;;3.43;100.00;101124.35;109780;1238;71757;-71
2024/01/26 10:27:51;;;;;;;6.70;3.40;;;;;;;3.48;100.00;101106.63;109797;1241;69624;-71
2024/01/26 10:30:20;;;;;;;6.70;3.50;;;;;;;3.52;100.00;101104.44;109791;1238;72515;-72
2024/01/26 10:32:51;;;;;;;5.10;3.10;;;;;;;3.53;100.00;101109.88;109875;1239;61615;-73
2024/01/26 10:35:22;;;;;;;3.60;2.70;;;;;;;3.53;100.00;101105.08;109624;1238;58283;-72
2024/01/26 10:37:51;;;;;;;3.70;2.50;;;;;;;3.50;100.00;101124.46;109507;1238;63784;-72
2024/01/26 10:40:20;;;;;;;3.90;2.70;;;;;;;3.48;100.00;101125.58;109631;1237;61768;-73
2024/01/26 10:42:50;;;;;;;3.80;2.60;;;;;;;3.43;100.00;101105.28;109745;1237;69653;-72
2024/01/26 10:45:19;;;;;;;5.40;3.20;;;;;;;3.47;100.00;101115.95;109845;1237;74247;-72
2024/01/26 10:47:49;;;;;;;4.30;2.60;;;;;;;3.45;100.00;101125.52;109879;1239;58186;-73
2024/01/26 10:50:19;;;;;;;4.40;2.70;;;;;;;3.44;100.00;101122.09;109687;1238;58274;-73
2024/01/26 10:52:49;;;;;;;3.60;2.90;;;;;;;3.44;100.00;101127.59;109637;1237;62748;-72
2024/01/26 10:55:19;;;;;;;4.70;3.10;;;;;;;3.39;100.00;101127.45;109741;1237;72280;-73
2024/01/26 10:57:48;;;;;;;4.60;3.50;;;;;;;3.38;100.00;101123.35;109779;1237;70727;-72
2024/01/26 11:00:17;;;;;;;10.00;3.40;;;;;;;3.38;100.00;101132.80;109826;1239;73442;-75
2024/01/26 11:02:46;;;;;;;5.10;3.50;;;;;;;3.35;100.00;101131.04;109759;1237;60920;-73
2024/01/26 11:05:17;;;;;;;4.80;3.10;;;;;;;3.35;100.00;101138.59;109647;1237;61426;-72
2024/01/26 11:07:47;;;;;;;5.80;3.80;;;;;;;3.40;100.00;101148.41;109659;1237;63962;-71
2024/01/26 11:10:25;;;;;;;4.90;3.30;;;;;;;3.44;100.00;101146.38;109882;1237;60951;-72
2024/01/26 11:13:01;;;;;;;4.40;3.40;;;;;;;3.38;100.00;101136.43;109899;1237;67945;-72
2024/01/26 11:15:34;;;;;;;5.10;2.90;;;;;;;3.47;100.00;101150.06;109783;1237;73101;-71
2024/01/26 11:18:05;;;;;;;7.00;2.80;;;;;;;3.46;100.00;101150.63;109770;1240;58283;-71
2024/01/26 11:20:36;;;;;;;3.70;3.00;;;;;;;3.47;100.00;101156.08;109956;1238;60131;-71
2024/01/26 11:23:15;;;;;;;8.90;4.30;;;;;;;3.47;100.00;101153.17;109821;1237;74891;-72
2024/01/26 11:25:46;;;;;;;4.10;3.20;;;;;;;3.42;100.00;101155.05;109970;1237;72836;-71